sensor_id;sensor_type;location;lat;lon;timestamp;temperature;humidity
4324;DHT22;2175;51.018;6.994;2023-03-29T00:02:21;5.70;99.90
4324;DHT22;2175;51.018;6.994;2023-03-29T00:04:56;5.70;99.90
4324;DHT22;2175;51.018;6.994;2023-03-29T00:07:21;5.80;99.90
4324;DHT22;2175;51.018;6.994;2023-03-29T00:09:48;5.70;99.90
4324;DHT22;2175;51.018;6.994;2023-03-29T00:12:14;5.80;99.90
4324;DHT22;2175;51.018;6.994;2023-03-29T00:14:40;5.80;99.90
4324;DHT22;2175;51.018;6.994;2023-03-29T00:17:05;5.80;99.90
4324;DHT22;2175;51.018;6.994;2023-03-29T00:19:32;5.80;99.90
4324;DHT22;2175;51.018;6.994;2023-03-29T00:22:02;5.80;99.90
4324;DHT22;2175;51.018;6.994;2023-03-29T00:24:30;5.90;99.90
4324;DHT22;2175;51.018;6.994;2023-03-29T00:26:59;5.90;99.90
4324;DHT22;2175;51.018;6.994;2023-03-29T00:29:25;5.90;99.90
4324;DHT22;2175;51.018;6.994;2023-03-29T00:31:51;5.90;99.90
4324;DHT22;2175;51.018;6.994;2023-03-29T00:34:26;5.90;99.90
4324;DHT22;2175;51.018;6.994;2023-03-29T00:36:55;5.90;99.90
4324;DHT22;2175;51.018;6.994;2023-03-29T00:39:24;5.90;99.90
4324;DHT22;2175;51.018;6.994;2023-03-29T00:41:50;5.90;99.90
4324;DHT22;2175;51.018;6.994;2023-03-29T00:44:56;6.00;99.90
4324;DHT22;2175;51.018;6.994;2023-03-29T00:52:36;5.90;99.90
4324;DHT22;2175;51.018;6.994;2023-03-29T00:55:08;5.90;99.90
4324;DHT22;2175;51.018;6.994;2023-03-29T00:57:37;6.00;99.90
4324;DHT22;2175;51.018;6.994;2023-03-29T01:00:08;5.90;99.90
4324;DHT22;2175;51.018;6.994;2023-03-29T01:02:38;5.90;99.90
4324;DHT22;2175;51.018;6.994;2023-03-29T01:05:08;6.00;99.90
4324;DHT22;2175;51.018;6.994;2023-03-29T01:07:46;5.90;99.90
4324;DHT22;2175;51.018;6.994;2023-03-29T01:10:21;5.90;99.90
4324;DHT22;2175;51.018;6.994;2023-03-29T01:12:55;5.90;99.90
4324;DHT22;2175;51.018;6.994;2023-03-29T01:15:24;5.90;99.90
4324;DHT22;2175;51.018;6.994;2023-03-29T01:17:51;5.90;99.90
4324;DHT22;2175;51.018;6.994;2023-03-29T01:20:20;5.90;99.90
4324;DHT22;2175;51.018;6.994;2023-03-29T01:23:13;5.90;99.90
4324;DHT22;2175;51.018;6.994;2023-03-29T01:28:34;6.00;99.90
4324;DHT22;2175;51.018;6.994;2023-03-29T01:31:11;6.00;99.90
4324;DHT22;2175;51.018;6.994;2023-03-29T01:33:46;5.90;99.90
4324;DHT22;2175;51.018;6.994;2023-03-29T01:36:26;6.00;99.90
4324;DHT22;2175;51.018;6.994;2023-03-29T01:38:58;6.00;99.90
4324;DHT22;2175;51.018;6.994;2023-03-29T01:44:26;6.10;99.90
4324;DHT22;2175;51.018;6.994;2023-03-29T01:47:29;6.10;99.90
4324;DHT22;2175;51.018;6.994;2023-03-29T01:50:22;6.10;99.90
4324;DHT22;2175;51.018;6.994;2023-03-29T01:52:58;6.10;99.90
4324;DHT22;2175;51.018;6.994;2023-03-29T01:55:31;6.10;99.90
4324;DHT22;2175;51.018;6.994;2023-03-29T01:58:02;6.10;99.90
4324;DHT22;2175;51.018;6.994;2023-03-29T02:00:29;6.10;99.90
4324;DHT22;2175;51.018;6.994;2023-03-29T02:03:01;6.20;99.90
4324;DHT22;2175;51.018;6.994;2023-03-29T02:05:29;6.20;99.90
4324;DHT22;2175;51.018;6.994;2023-03-29T02:07:56;6.20;99.90
4324;DHT22;2175;51.018;6.994;2023-03-29T02:10:23;6.20;99.90
4324;DHT22;2175;51.018;6.994;2023-03-29T02:12:50;6.20;99.90
4324;DHT22;2175;51.018;6.994;2023-03-29T02:15:18;6.20;99.90
4324;DHT22;2175;51.018;6.994;2023-03-29T02:17:45;6.20;99.90
4324;DHT22;2175;51.018;6.994;2023-03-29T02:20:33;6.10;99.90
4324;DHT22;2175;51.018;6.994;2023-03-29T02:25:40;6.20;99.90
4324;DHT22;2175;51.018;6.994;2023-03-29T02:28:06;6.20;99.90
4324;DHT22;2175;51.018;6.994;2023-03-29T02:33:38;6.30;99.90
4324;DHT22;2175;51.018;6.994;2023-03-29T02:36:13;6.20;99.90
4324;DHT22;2175;51.018;6.994;2023-03-29T02:38:42;6.20;99.90
4324;DHT22;2175;51.018;6.994;2023-03-29T02:41:08;6.30;99.90
4324;DHT22;2175;51.018;6.994;2023-03-29T02:43:35;6.30;99.90
4324;DHT22;2175;51.018;6.994;2023-03-29T02:46:04;6.30;99.90
4324;DHT22;2175;51.018;6.994;2023-03-29T02:48:33;6.40;99.90
4324;DHT22;2175;51.018;6.994;2023-03-29T02:51:02;6.30;99.90
4324;DHT22;2175;51.018;6.994;2023-03-29T02:53:33;6.40;99.90
4324;DHT22;2175;51.018;6.994;2023-03-29T02:56:02;6.40;99.90
4324;DHT22;2175;51.018;6.994;2023-03-29T02:58:28;6.50;99.90
4324;DHT22;2175;51.018;6.994;2023-03-29T03:00:58;6.50;99.90
4324;DHT22;2175;51.018;6.994;2023-03-29T03:03:25;6.50;99.90
4324;DHT22;2175;51.018;6.994;2023-03-29T03:05:51;6.50;99.90
4324;DHT22;2175;51.018;6.994;2023-03-29T03:08:18;6.50;99.90
4324;DHT22;2175;51.018;6.994;2023-03-29T03:10:44;6.50;99.90
4324;DHT22;2175;51.018;6.994;2023-03-29T03:13:10;6.50;99.90
4324;DHT22;2175;51.018;6.994;2023-03-29T03:15:37;6.50;99.90
4324;DHT22;2175;51.018;6.994;2023-03-29T03:18:05;6.50;99.90
4324;DHT22;2175;51.018;6.994;2023-03-29T03:20:31;6.60;99.90
4324;DHT22;2175;51.018;6.994;2023-03-29T03:22:56;6.60;99.90
4324;DHT22;2175;51.018;6.994;2023-03-29T03:25:22;6.70;99.90
4324;DHT22;2175;51.018;6.994;2023-03-29T03:27:48;6.60;99.90
4324;DHT22;2175;51.018;6.994;2023-03-29T03:30:15;6.70;99.90
4324;DHT22;2175;51.018;6.994;2023-03-29T03:32:41;6.60;99.90
4324;DHT22;2175;51.018;6.994;2023-03-29T03:35:08;6.60;99.90
4324;DHT22;2175;51.018;6.994;2023-03-29T03:37:36;6.70;99.90
4324;DHT22;2175;51.018;6.994;2023-03-29T03:40:04;6.70;99.90
4324;DHT22;2175;51.018;6.994;2023-03-29T03:42:31;6.80;99.90
4324;DHT22;2175;51.018;6.994;2023-03-29T03:44:56;6.70;99.90
4324;DHT22;2175;51.018;6.994;2023-03-29T03:47:22;6.70;99.90
4324;DHT22;2175;51.018;6.994;2023-03-29T03:49:49;6.80;99.90
4324;DHT22;2175;51.018;6.994;2023-03-29T03:52:16;6.80;99.90
4324;DHT22;2175;51.018;6.994;2023-03-29T03:54:41;6.80;99.90
4324;DHT22;2175;51.018;6.994;2023-03-29T03:57:07;6.80;99.90
4324;DHT22;2175;51.018;6.994;2023-03-29T03:59:33;6.80;99.90
4324;DHT22;2175;51.018;6.994;2023-03-29T04:01:59;6.80;99.90
4324;DHT22;2175;51.018;6.994;2023-03-29T04:04:24;6.80;99.90
4324;DHT22;2175;51.018;6.994;2023-03-29T04:06:50;6.70;99.90
4324;DHT22;2175;51.018;6.994;2023-03-29T04:09:17;6.80;99.90
4324;DHT22;2175;51.018;6.994;2023-03-29T04:11:43;6.80;99.90
4324;DHT22;2175;51.018;6.994;2023-03-29T04:14:08;6.80;99.90
4324;DHT22;2175;51.018;6.994;2023-03-29T04:16:34;6.80;99.90
4324;DHT22;2175;51.018;6.994;2023-03-29T04:19:01;6.80;99.90
4324;DHT22;2175;51.018;6.994;2023-03-29T04:21:26;6.80;99.90
4324;DHT22;2175;51.018;6.994;2023-03-29T04:23:52;6.80;99.90
4324;DHT22;2175;51.018;6.994;2023-03-29T04:26:18;6.90;99.90
4324;DHT22;2175;51.018;6.994;2023-03-29T04:28:43;6.90;99.90
4324;DHT22;2175;51.018;6.994;2023-03-29T04:31:13;6.90;99.90
4324;DHT22;2175;51.018;6.994;2023-03-29T04:33:39;6.90;99.90
4324;DHT22;2175;51.018;6.994;2023-03-29T04:36:06;6.90;99.90
4324;DHT22;2175;51.018;6.994;2023-03-29T04:38:32;6.90;99.90
4324;DHT22;2175;51.018;6.994;2023-03-29T04:41:01;6.90;99.90
4324;DHT22;2175;51.018;6.994;2023-03-29T04:43:29;6.90;99.90
4324;DHT22;2175;51.018;6.994;2023-03-29T04:45:55;6.90;99.90
4324;DHT22;2175;51.018;6.994;2023-03-29T04:48:22;6.90;99.90
4324;DHT22;2175;51.018;6.994;2023-03-29T04:50:48;6.90;99.90
4324;DHT22;2175;51.018;6.994;2023-03-29T04:53:13;6.90;99.90
4324;DHT22;2175;51.018;6.994;2023-03-29T04:55:39;6.90;99.90
4324;DHT22;2175;51.018;6.994;2023-03-29T04:58:05;6.90;99.90
4324;DHT22;2175;51.018;6.994;2023-03-29T05:00:31;6.90;99.90
4324;DHT22;2175;51.018;6.994;2023-03-29T05:02:56;6.90;99.90
4324;DHT22;2175;51.018;6.994;2023-03-29T05:05:23;6.90;99.90
4324;DHT22;2175;51.018;6.994;2023-03-29T05:07:48;7.00;99.90
4324;DHT22;2175;51.018;6.994;2023-03-29T05:10:15;7.00;99.90
4324;DHT22;2175;51.018;6.994;2023-03-29T05:12:40;7.00;99.90
4324;DHT22;2175;51.018;6.994;2023-03-29T05:15:06;7.00;99.90
4324;DHT22;2175;51.018;6.994;2023-03-29T05:17:33;7.00;99.90
4324;DHT22;2175;51.018;6.994;2023-03-29T05:19:58;7.00;99.90
4324;DHT22;2175;51.018;6.994;2023-03-29T05:22:24;7.00;99.90
4324;DHT22;2175;51.018;6.994;2023-03-29T05:24:50;7.00;99.90
4324;DHT22;2175;51.018;6.994;2023-03-29T05:27:17;7.00;99.90
4324;DHT22;2175;51.018;6.994;2023-03-29T05:29:43;7.00;99.90
4324;DHT22;2175;51.018;6.994;2023-03-29T05:32:12;7.00;99.90
4324;DHT22;2175;51.018;6.994;2023-03-29T05:34:38;7.10;99.90
4324;DHT22;2175;51.018;6.994;2023-03-29T05:37:03;7.00;99.90
4324;DHT22;2175;51.018;6.994;2023-03-29T05:39:30;7.10;99.90
4324;DHT22;2175;51.018;6.994;2023-03-29T05:41:57;7.10;99.90
4324;DHT22;2175;51.018;6.994;2023-03-29T05:44:23;7.00;99.90
4324;DHT22;2175;51.018;6.994;2023-03-29T05:46:49;7.10;99.90
4324;DHT22;2175;51.018;6.994;2023-03-29T05:49:14;7.10;99.90
4324;DHT22;2175;51.018;6.994;2023-03-29T05:51:40;7.20;99.90
4324;DHT22;2175;51.018;6.994;2023-03-29T05:54:07;7.40;99.90
4324;DHT22;2175;51.018;6.994;2023-03-29T05:56:32;7.40;99.90
4324;DHT22;2175;51.018;6.994;2023-03-29T05:58:58;7.30;99.90
4324;DHT22;2175;51.018;6.994;2023-03-29T06:01:24;7.30;99.90
4324;DHT22;2175;51.018;6.994;2023-03-29T06:03:50;7.40;99.90
4324;DHT22;2175;51.018;6.994;2023-03-29T06:06:16;7.40;99.90
4324;DHT22;2175;51.018;6.994;2023-03-29T06:08:42;7.40;99.90
4324;DHT22;2175;51.018;6.994;2023-03-29T06:11:09;7.50;99.90
4324;DHT22;2175;51.018;6.994;2023-03-29T06:13:36;7.50;99.90
4324;DHT22;2175;51.018;6.994;2023-03-29T06:16:04;7.50;99.90
4324;DHT22;2175;51.018;6.994;2023-03-29T06:18:30;7.60;99.90
4324;DHT22;2175;51.018;6.994;2023-03-29T06:20:56;7.60;99.90
4324;DHT22;2175;51.018;6.994;2023-03-29T06:23:22;7.60;99.90
4324;DHT22;2175;51.018;6.994;2023-03-29T06:25:47;7.60;99.90
4324;DHT22;2175;51.018;6.994;2023-03-29T06:28:16;7.60;99.90
4324;DHT22;2175;51.018;6.994;2023-03-29T06:30:42;7.70;99.90
4324;DHT22;2175;51.018;6.994;2023-03-29T06:33:09;7.70;99.90
4324;DHT22;2175;51.018;6.994;2023-03-29T06:35:35;7.70;99.90
4324;DHT22;2175;51.018;6.994;2023-03-29T06:38:01;7.70;99.90
4324;DHT22;2175;51.018;6.994;2023-03-29T06:40:27;7.70;99.90
4324;DHT22;2175;51.018;6.994;2023-03-29T06:42:54;7.90;99.90
4324;DHT22;2175;51.018;6.994;2023-03-29T06:45:24;7.90;99.90
4324;DHT22;2175;51.018;6.994;2023-03-29T06:47:50;7.80;99.90
4324;DHT22;2175;51.018;6.994;2023-03-29T06:52:45;7.90;99.90
4324;DHT22;2175;51.018;6.994;2023-03-29T06:55:12;7.90;99.90
4324;DHT22;2175;51.018;6.994;2023-03-29T06:57:38;8.00;99.90
4324;DHT22;2175;51.018;6.994;2023-03-29T07:00:05;8.00;99.90
4324;DHT22;2175;51.018;6.994;2023-03-29T07:02:43;8.00;99.90
4324;DHT22;2175;51.018;6.994;2023-03-29T07:05:10;8.10;99.90
4324;DHT22;2175;51.018;6.994;2023-03-29T07:07:44;8.10;99.90
4324;DHT22;2175;51.018;6.994;2023-03-29T07:10:29;8.20;99.90
4324;DHT22;2175;51.018;6.994;2023-03-29T07:12:59;8.30;99.90
4324;DHT22;2175;51.018;6.994;2023-03-29T07:15:26;8.30;99.90
4324;DHT22;2175;51.018;6.994;2023-03-29T07:17:53;8.30;99.90
4324;DHT22;2175;51.018;6.994;2023-03-29T07:20:19;8.30;99.90
4324;DHT22;2175;51.018;6.994;2023-03-29T07:22:48;8.30;99.90
4324;DHT22;2175;51.018;6.994;2023-03-29T07:25:19;8.40;99.90
4324;DHT22;2175;51.018;6.994;2023-03-29T07:27:45;8.40;99.90
4324;DHT22;2175;51.018;6.994;2023-03-29T07:30:14;8.60;99.90
4324;DHT22;2175;51.018;6.994;2023-03-29T07:32:42;8.70;99.90
4324;DHT22;2175;51.018;6.994;2023-03-29T07:35:09;8.80;99.90
4324;DHT22;2175;51.018;6.994;2023-03-29T07:37:36;8.70;99.90
4324;DHT22;2175;51.018;6.994;2023-03-29T07:40:04;8.70;99.90
4324;DHT22;2175;51.018;6.994;2023-03-29T07:42:37;8.70;99.90
4324;DHT22;2175;51.018;6.994;2023-03-29T07:45:04;8.70;99.90
4324;DHT22;2175;51.018;6.994;2023-03-29T07:47:30;8.70;99.90
4324;DHT22;2175;51.018;6.994;2023-03-29T07:49:56;8.80;99.90
4324;DHT22;2175;51.018;6.994;2023-03-29T07:52:23;8.80;99.90
4324;DHT22;2175;51.018;6.994;2023-03-29T07:54:49;8.90;99.90
4324;DHT22;2175;51.018;6.994;2023-03-29T07:57:14;8.90;99.90
4324;DHT22;2175;51.018;6.994;2023-03-29T07:59:40;8.90;99.90
4324;DHT22;2175;51.018;6.994;2023-03-29T08:02:06;9.10;99.90
4324;DHT22;2175;51.018;6.994;2023-03-29T08:04:31;9.10;99.90
4324;DHT22;2175;51.018;6.994;2023-03-29T08:06:57;9.10;99.90
4324;DHT22;2175;51.018;6.994;2023-03-29T08:09:23;9.10;99.90
4324;DHT22;2175;51.018;6.994;2023-03-29T08:11:48;9.20;99.90
4324;DHT22;2175;51.018;6.994;2023-03-29T08:14:14;9.30;99.90
4324;DHT22;2175;51.018;6.994;2023-03-29T08:16:40;9.30;99.90
4324;DHT22;2175;51.018;6.994;2023-03-29T08:19:05;9.40;99.90
4324;DHT22;2175;51.018;6.994;2023-03-29T08:21:31;9.50;99.90
4324;DHT22;2175;51.018;6.994;2023-03-29T08:23:57;9.60;99.90
4324;DHT22;2175;51.018;6.994;2023-03-29T08:26:22;9.70;99.90
4324;DHT22;2175;51.018;6.994;2023-03-29T08:28:48;9.70;99.90
4324;DHT22;2175;51.018;6.994;2023-03-29T08:31:13;9.90;99.90
4324;DHT22;2175;51.018;6.994;2023-03-29T08:33:39;9.90;99.90
4324;DHT22;2175;51.018;6.994;2023-03-29T08:36:07;10.10;99.90
4324;DHT22;2175;51.018;6.994;2023-03-29T08:38:33;10.30;99.90
4324;DHT22;2175;51.018;6.994;2023-03-29T08:40:58;10.40;99.90
4324;DHT22;2175;51.018;6.994;2023-03-29T08:43:46;10.40;99.90
4324;DHT22;2175;51.018;6.994;2023-03-29T08:49:24;10.40;99.90
4324;DHT22;2175;51.018;6.994;2023-03-29T08:51:56;10.50;99.90
4324;DHT22;2175;51.018;6.994;2023-03-29T08:54:42;10.50;99.90
4324;DHT22;2175;51.018;6.994;2023-03-29T08:57:27;10.60;99.90
4324;DHT22;2175;51.018;6.994;2023-03-29T08:59:56;10.60;99.90
4324;DHT22;2175;51.018;6.994;2023-03-29T09:02:25;10.70;99.90
4324;DHT22;2175;51.018;6.994;2023-03-29T09:04:56;10.70;99.90
4324;DHT22;2175;51.018;6.994;2023-03-29T09:07:24;10.60;99.90
4324;DHT22;2175;51.018;6.994;2023-03-29T09:09:51;10.60;99.90
4324;DHT22;2175;51.018;6.994;2023-03-29T09:15:17;10.70;99.90
4324;DHT22;2175;51.018;6.994;2023-03-29T09:26:15;10.70;99.90
4324;DHT22;2175;51.018;6.994;2023-03-29T09:31:25;10.90;99.90
4324;DHT22;2175;51.018;6.994;2023-03-29T09:33:57;10.90;99.90
4324;DHT22;2175;51.018;6.994;2023-03-29T09:39:01;11.00;99.90
4324;DHT22;2175;51.018;6.994;2023-03-29T09:44:29;11.20;99.90
4324;DHT22;2175;51.018;6.994;2023-03-29T09:49:38;11.40;99.90
4324;DHT22;2175;51.018;6.994;2023-03-29T09:52:10;11.40;99.90
4324;DHT22;2175;51.018;6.994;2023-03-29T09:54:36;11.50;99.90
4324;DHT22;2175;51.018;6.994;2023-03-29T09:57:02;11.50;99.90
4324;DHT22;2175;51.018;6.994;2023-03-29T09:59:28;11.60;99.90
4324;DHT22;2175;51.018;6.994;2023-03-29T10:02:08;11.60;99.90
4324;DHT22;2175;51.018;6.994;2023-03-29T10:04:34;11.60;99.90
4324;DHT22;2175;51.018;6.994;2023-03-29T10:07:00;11.60;99.90
4324;DHT22;2175;51.018;6.994;2023-03-29T10:09:28;11.60;99.90
4324;DHT22;2175;51.018;6.994;2023-03-29T10:11:56;11.60;99.90
4324;DHT22;2175;51.018;6.994;2023-03-29T10:14:37;11.80;99.90
4324;DHT22;2175;51.018;6.994;2023-03-29T10:20:02;11.80;99.90
4324;DHT22;2175;51.018;6.994;2023-03-29T10:22:34;11.90;99.90
4324;DHT22;2175;51.018;6.994;2023-03-29T10:25:12;11.80;99.90
4324;DHT22;2175;51.018;6.994;2023-03-29T10:27:40;11.80;99.90
4324;DHT22;2175;51.018;6.994;2023-03-29T10:30:10;11.90;99.90
4324;DHT22;2175;51.018;6.994;2023-03-29T10:32:38;11.90;99.90
4324;DHT22;2175;51.018;6.994;2023-03-29T10:35:27;12.10;99.90
4324;DHT22;2175;51.018;6.994;2023-03-29T10:37:55;12.20;99.90
4324;DHT22;2175;51.018;6.994;2023-03-29T10:40:28;12.20;99.90
4324;DHT22;2175;51.018;6.994;2023-03-29T10:42:58;12.20;99.90
4324;DHT22;2175;51.018;6.994;2023-03-29T10:45:33;12.40;99.90
4324;DHT22;2175;51.018;6.994;2023-03-29T10:47:59;12.50;99.90
4324;DHT22;2175;51.018;6.994;2023-03-29T10:50:32;12.60;99.90
4324;DHT22;2175;51.018;6.994;2023-03-29T10:52:59;12.90;99.90
4324;DHT22;2175;51.018;6.994;2023-03-29T10:55:34;13.10;99.90
4324;DHT22;2175;51.018;6.994;2023-03-29T11:00:56;13.50;99.90
4324;DHT22;2175;51.018;6.994;2023-03-29T11:06:18;13.60;99.90
4324;DHT22;2175;51.018;6.994;2023-03-29T11:08:56;13.70;99.90
4324;DHT22;2175;51.018;6.994;2023-03-29T11:17:17;14.00;99.90
4324;DHT22;2175;51.018;6.994;2023-03-29T11:30:44;14.00;99.90
4324;DHT22;2175;51.018;6.994;2023-03-29T11:33:36;14.10;99.90
4324;DHT22;2175;51.018;6.994;2023-03-29T11:36:36;14.20;99.90
4324;DHT22;2175;51.018;6.994;2023-03-29T11:41:57;14.40;99.90
4324;DHT22;2175;51.018;6.994;2023-03-29T11:44:29;14.50;99.90
4324;DHT22;2175;51.018;6.994;2023-03-29T11:49:53;14.70;99.90
4324;DHT22;2175;51.018;6.994;2023-03-29T11:52:28;14.70;99.90
4324;DHT22;2175;51.018;6.994;2023-03-29T11:55:07;14.60;99.90
4324;DHT22;2175;51.018;6.994;2023-03-29T11:58:00;14.60;99.90
4324;DHT22;2175;51.018;6.994;2023-03-29T12:00:30;14.50;99.90
4324;DHT22;2175;51.018;6.994;2023-03-29T12:05:35;14.90;99.90
4324;DHT22;2175;51.018;6.994;2023-03-29T12:08:41;15.30;99.90
4324;DHT22;2175;51.018;6.994;2023-03-29T12:13:48;15.60;99.90
4324;DHT22;2175;51.018;6.994;2023-03-29T12:18:55;15.60;99.90
4324;DHT22;2175;51.018;6.994;2023-03-29T12:21:23;15.50;99.90
4324;DHT22;2175;51.018;6.994;2023-03-29T12:23:50;15.70;99.90
4324;DHT22;2175;51.018;6.994;2023-03-29T12:32:14;15.60;99.90
4324;DHT22;2175;51.018;6.994;2023-03-29T12:34:57;15.70;99.90
4324;DHT22;2175;51.018;6.994;2023-03-29T12:40:20;16.10;99.90
4324;DHT22;2175;51.018;6.994;2023-03-29T12:43:02;16.10;99.90
4324;DHT22;2175;51.018;6.994;2023-03-29T12:45:43;16.30;99.90
4324;DHT22;2175;51.018;6.994;2023-03-29T12:48:28;16.50;99.90
4324;DHT22;2175;51.018;6.994;2023-03-29T12:50:57;16.50;99.90
4324;DHT22;2175;51.018;6.994;2023-03-29T12:53:26;16.40;99.90
4324;DHT22;2175;51.018;6.994;2023-03-29T12:58:40;16.10;99.90
4324;DHT22;2175;51.018;6.994;2023-03-29T13:01:31;16.10;99.90
4324;DHT22;2175;51.018;6.994;2023-03-29T13:06:49;16.30;99.90
4324;DHT22;2175;51.018;6.994;2023-03-29T13:09:25;16.50;99.90
4324;DHT22;2175;51.018;6.994;2023-03-29T13:14:24;16.50;99.90
4324;DHT22;2175;51.018;6.994;2023-03-29T13:16:52;16.60;99.90
4324;DHT22;2175;51.018;6.994;2023-03-29T13:22:37;16.60;99.90
4324;DHT22;2175;51.018;6.994;2023-03-29T13:33:30;16.30;99.90
4324;DHT22;2175;51.018;6.994;2023-03-29T13:38:46;16.10;99.90
4324;DHT22;2175;51.018;6.994;2023-03-29T13:41:44;16.00;99.90
4324;DHT22;2175;51.018;6.994;2023-03-29T13:44:42;16.00;99.90
4324;DHT22;2175;51.018;6.994;2023-03-29T13:49:56;16.40;99.90
4324;DHT22;2175;51.018;6.994;2023-03-29T13:52:56;16.20;99.90
4324;DHT22;2175;51.018;6.994;2023-03-29T13:55:19;16.10;99.90
4324;DHT22;2175;51.018;6.994;2023-03-29T13:57:54;16.20;99.90
4324;DHT22;2175;51.018;6.994;2023-03-29T14:00:26;16.20;99.90
4324;DHT22;2175;51.018;6.994;2023-03-29T14:02:55;16.30;99.90
4324;DHT22;2175;51.018;6.994;2023-03-29T14:05:33;16.20;99.90
4324;DHT22;2175;51.018;6.994;2023-03-29T14:08:29;16.20;99.90
4324;DHT22;2175;51.018;6.994;2023-03-29T14:10:59;16.20;99.90
4324;DHT22;2175;51.018;6.994;2023-03-29T14:13:26;16.30;99.90
4324;DHT22;2175;51.018;6.994;2023-03-29T14:15:59;16.30;99.90
4324;DHT22;2175;51.018;6.994;2023-03-29T14:18:35;16.30;99.90
4324;DHT22;2175;51.018;6.994;2023-03-29T14:21:01;16.40;99.90
4324;DHT22;2175;51.018;6.994;2023-03-29T14:23:28;16.40;99.90
4324;DHT22;2175;51.018;6.994;2023-03-29T14:26:06;16.30;99.90
4324;DHT22;2175;51.018;6.994;2023-03-29T14:28:32;16.30;99.90
4324;DHT22;2175;51.018;6.994;2023-03-29T14:30:58;16.30;99.90
4324;DHT22;2175;51.018;6.994;2023-03-29T14:33:28;16.30;99.90
4324;DHT22;2175;51.018;6.994;2023-03-29T14:35:56;16.30;99.90
4324;DHT22;2175;51.018;6.994;2023-03-29T14:38:23;16.40;99.90
4324;DHT22;2175;51.018;6.994;2023-03-29T14:40:49;16.50;99.90
4324;DHT22;2175;51.018;6.994;2023-03-29T14:43:20;16.60;99.90
4324;DHT22;2175;51.018;6.994;2023-03-29T14:45:52;16.60;99.90
4324;DHT22;2175;51.018;6.994;2023-03-29T14:48:18;16.70;99.90
4324;DHT22;2175;51.018;6.994;2023-03-29T14:50:44;16.70;99.90
4324;DHT22;2175;51.018;6.994;2023-03-29T14:53:17;16.60;99.90
4324;DHT22;2175;51.018;6.994;2023-03-29T14:55:46;16.50;99.90
4324;DHT22;2175;51.018;6.994;2023-03-29T14:58:53;16.50;99.90
4324;DHT22;2175;51.018;6.994;2023-03-29T15:01:20;16.60;99.90
4324;DHT22;2175;51.018;6.994;2023-03-29T15:03:54;16.60;99.90
4324;DHT22;2175;51.018;6.994;2023-03-29T15:06:22;16.60;99.90
4324;DHT22;2175;51.018;6.994;2023-03-29T15:08:48;16.50;99.90
4324;DHT22;2175;51.018;6.994;2023-03-29T15:11:17;16.50;99.90
4324;DHT22;2175;51.018;6.994;2023-03-29T15:13:45;16.50;99.90
4324;DHT22;2175;51.018;6.994;2023-03-29T15:16:15;16.50;99.90
4324;DHT22;2175;51.018;6.994;2023-03-29T15:18:44;16.60;99.90
4324;DHT22;2175;51.018;6.994;2023-03-29T15:21:13;16.50;99.90
4324;DHT22;2175;51.018;6.994;2023-03-29T15:23:55;16.40;99.90
4324;DHT22;2175;51.018;6.994;2023-03-29T15:26:34;16.40;99.90
4324;DHT22;2175;51.018;6.994;2023-03-29T15:29:19;16.30;99.90
4324;DHT22;2175;51.018;6.994;2023-03-29T15:31:55;16.20;99.90
4324;DHT22;2175;51.018;6.994;2023-03-29T15:34:29;16.10;99.90
4324;DHT22;2175;51.018;6.994;2023-03-29T15:36:55;16.10;99.90
4324;DHT22;2175;51.018;6.994;2023-03-29T15:39:25;16.00;99.90
4324;DHT22;2175;51.018;6.994;2023-03-29T15:41:55;15.90;99.90
4324;DHT22;2175;51.018;6.994;2023-03-29T15:44:26;15.90;99.90
4324;DHT22;2175;51.018;6.994;2023-03-29T15:46:52;15.90;99.90
4324;DHT22;2175;51.018;6.994;2023-03-29T15:49:19;16.00;99.90
4324;DHT22;2175;51.018;6.994;2023-03-29T15:51:45;16.00;99.90
4324;DHT22;2175;51.018;6.994;2023-03-29T15:54:10;16.00;99.90
4324;DHT22;2175;51.018;6.994;2023-03-29T15:56:54;16.00;99.90
4324;DHT22;2175;51.018;6.994;2023-03-29T15:59:21;16.00;99.90
4324;DHT22;2175;51.018;6.994;2023-03-29T16:01:47;15.90;99.90
4324;DHT22;2175;51.018;6.994;2023-03-29T16:04:15;15.90;99.90
4324;DHT22;2175;51.018;6.994;2023-03-29T16:06:43;15.90;99.90
4324;DHT22;2175;51.018;6.994;2023-03-29T16:09:09;15.90;99.90
4324;DHT22;2175;51.018;6.994;2023-03-29T16:11:36;15.80;99.90
4324;DHT22;2175;51.018;6.994;2023-03-29T16:16:43;15.80;99.90
4324;DHT22;2175;51.018;6.994;2023-03-29T16:19:09;15.90;99.90
4324;DHT22;2175;51.018;6.994;2023-03-29T16:21:34;15.90;99.90
4324;DHT22;2175;51.018;6.994;2023-03-29T16:24:01;15.90;99.90
4324;DHT22;2175;51.018;6.994;2023-03-29T16:26:26;16.00;99.90
4324;DHT22;2175;51.018;6.994;2023-03-29T16:28:55;16.10;99.90
4324;DHT22;2175;51.018;6.994;2023-03-29T16:31:21;16.00;99.90
4324;DHT22;2175;51.018;6.994;2023-03-29T16:33:49;16.00;99.90
4324;DHT22;2175;51.018;6.994;2023-03-29T16:36:14;16.00;99.90
4324;DHT22;2175;51.018;6.994;2023-03-29T16:38:40;16.00;99.90
4324;DHT22;2175;51.018;6.994;2023-03-29T16:41:20;15.90;99.90
4324;DHT22;2175;51.018;6.994;2023-03-29T16:43:46;15.90;99.90
4324;DHT22;2175;51.018;6.994;2023-03-29T16:46:12;15.90;99.90
4324;DHT22;2175;51.018;6.994;2023-03-29T16:48:38;16.00;99.90
4324;DHT22;2175;51.018;6.994;2023-03-29T16:51:04;15.90;99.90
4324;DHT22;2175;51.018;6.994;2023-03-29T16:53:29;15.80;99.90
4324;DHT22;2175;51.018;6.994;2023-03-29T16:55:56;15.80;99.90
4324;DHT22;2175;51.018;6.994;2023-03-29T16:58:22;15.80;99.90
4324;DHT22;2175;51.018;6.994;2023-03-29T17:00:49;15.80;99.90
4324;DHT22;2175;51.018;6.994;2023-03-29T17:03:16;15.80;99.90
4324;DHT22;2175;51.018;6.994;2023-03-29T17:05:55;15.70;99.90
4324;DHT22;2175;51.018;6.994;2023-03-29T17:08:22;15.70;99.90
4324;DHT22;2175;51.018;6.994;2023-03-29T17:10:51;15.60;99.90
4324;DHT22;2175;51.018;6.994;2023-03-29T17:13:18;15.70;99.90
4324;DHT22;2175;51.018;6.994;2023-03-29T17:15:45;15.70;99.90
4324;DHT22;2175;51.018;6.994;2023-03-29T17:18:11;15.70;99.90
4324;DHT22;2175;51.018;6.994;2023-03-29T17:20:38;15.70;99.90
4324;DHT22;2175;51.018;6.994;2023-03-29T17:23:04;15.70;99.90
4324;DHT22;2175;51.018;6.994;2023-03-29T17:25:30;15.60;99.90
4324;DHT22;2175;51.018;6.994;2023-03-29T17:27:56;15.60;99.90
4324;DHT22;2175;51.018;6.994;2023-03-29T17:30:21;15.60;99.90
4324;DHT22;2175;51.018;6.994;2023-03-29T17:32:47;15.60;99.90
4324;DHT22;2175;51.018;6.994;2023-03-29T17:35:13;15.50;99.90
4324;DHT22;2175;51.018;6.994;2023-03-29T17:37:39;15.50;99.90
4324;DHT22;2175;51.018;6.994;2023-03-29T17:40:06;15.50;99.90
4324;DHT22;2175;51.018;6.994;2023-03-29T17:42:41;15.50;99.90
4324;DHT22;2175;51.018;6.994;2023-03-29T17:45:08;15.50;99.90
4324;DHT22;2175;51.018;6.994;2023-03-29T17:47:34;15.50;99.90
4324;DHT22;2175;51.018;6.994;2023-03-29T17:50:00;15.50;99.90
4324;DHT22;2175;51.018;6.994;2023-03-29T17:52:25;15.40;99.90
4324;DHT22;2175;51.018;6.994;2023-03-29T17:54:51;15.40;99.90
4324;DHT22;2175;51.018;6.994;2023-03-29T17:57:17;15.40;99.90
4324;DHT22;2175;51.018;6.994;2023-03-29T17:59:42;15.30;99.90
4324;DHT22;2175;51.018;6.994;2023-03-29T18:02:18;15.30;99.90
4324;DHT22;2175;51.018;6.994;2023-03-29T18:04:45;15.30;99.90
4324;DHT22;2175;51.018;6.994;2023-03-29T18:07:11;15.30;99.90
4324;DHT22;2175;51.018;6.994;2023-03-29T18:09:36;15.20;99.90
4324;DHT22;2175;51.018;6.994;2023-03-29T18:12:02;15.20;99.90
4324;DHT22;2175;51.018;6.994;2023-03-29T18:14:28;15.10;99.90
4324;DHT22;2175;51.018;6.994;2023-03-29T18:16:53;15.20;99.90
4324;DHT22;2175;51.018;6.994;2023-03-29T18:19:20;15.20;99.90
4324;DHT22;2175;51.018;6.994;2023-03-29T18:21:45;15.20;99.90
4324;DHT22;2175;51.018;6.994;2023-03-29T18:24:11;15.10;99.90
4324;DHT22;2175;51.018;6.994;2023-03-29T18:26:36;15.10;99.90